sensor_id;sensor_type;location;lat;lon;timestamp;pressure;altitude;pressure_sealevel;temperature;humidity
42761;BME280;31672;47.638;19.026;2023-04-01T00:01:58;98692.59;;;9.12;85.55
42761;BME280;31672;47.638;19.026;2023-04-01T00:07:01;98697.94;;;9.19;84.77
42761;BME280;31672;47.638;19.026;2023-04-01T00:12:04;98688.75;;;9.21;84.74
42761;BME280;31672;47.638;19.026;2023-04-01T00:17:08;98696.09;;;9.19;84.45
42761;BME280;31672;47.638;19.026;2023-04-01T00:22:11;98709.56;;;9.18;84.51
42761;BME280;31672;47.638;19.026;2023-04-01T00:27:15;98707.06;;;9.16;84.45
42761;BME280;31672;47.638;19.026;2023-04-01T00:32:18;98699.69;;;9.11;85.30
42761;BME280;31672;47.638;19.026;2023-04-01T00:37:22;98705.66;;;9.14;84.89
42761;BME280;31672;47.638;19.026;2023-04-01T00:42:25;98700.56;;;9.12;85.16
42761;BME280;31672;47.638;19.026;2023-04-01T00:47:28;98687.88;;;9.07;85.45
42761;BME280;31672;47.638;19.026;2023-04-01T00:52:31;98690.66;;;8.99;86.11
42761;BME280;31672;47.638;19.026;2023-04-01T00:57:37;98681.28;;;8.97;86.31
42761;BME280;31672;47.638;19.026;2023-04-01T01:02:45;98687.34;;;8.91;86.32
42761;BME280;31672;47.638;19.026;2023-04-01T01:13:36;98687.13;;;8.85;87.10
42761;BME280;31672;47.638;19.026;2023-04-01T01:19:30;98680.38;;;8.83;87.48
42761;BME280;31672;47.638;19.026;2023-04-01T01:31:18;98676.16;;;8.89;86.43
42761;BME280;31672;47.638;19.026;2023-04-01T01:36:04;98675.94;;;8.90;86.49
42761;BME280;31672;47.638;19.026;2023-04-01T01:41:10;98667.03;;;8.98;85.68
42761;BME280;31672;47.638;19.026;2023-04-01T01:46:19;98671.94;;;9.01;85.43
42761;BME280;31672;47.638;19.026;2023-04-01T01:51:25;98680.13;;;9.06;85.21
42761;BME280;31672;47.638;19.026;2023-04-01T01:56:29;98670.97;;;9.08;84.96
42761;BME280;31672;47.638;19.026;2023-04-01T02:01:37;98669.13;;;9.09;84.76
42761;BME280;31672;47.638;19.026;2023-04-01T02:07:03;98673.41;;;9.10;84.65
42761;BME280;31672;47.638;19.026;2023-04-01T02:12:10;98673.66;;;9.15;83.97
42761;BME280;31672;47.638;19.026;2023-04-01T02:17:22;98662.88;;;9.23;82.17
42761;BME280;31672;47.638;19.026;2023-04-01T02:22:37;98650.88;;;9.27;80.96
42761;BME280;31672;47.638;19.026;2023-04-01T02:27:45;98648.44;;;9.32;80.25
42761;BME280;31672;47.638;19.026;2023-04-01T02:32:49;98656.97;;;9.28;80.37
42761;BME280;31672;47.638;19.026;2023-04-01T02:37:54;98647.38;;;9.20;80.46
42761;BME280;31672;47.638;19.026;2023-04-01T02:42:58;98643.84;;;9.06;80.63
42761;BME280;31672;47.638;19.026;2023-04-01T02:48:01;98645.41;;;8.94;81.19
42761;BME280;31672;47.638;19.026;2023-04-01T02:53:04;98636.78;;;8.85;81.26
42761;BME280;31672;47.638;19.026;2023-04-01T02:58:08;98644.94;;;8.84;81.29
42761;BME280;31672;47.638;19.026;2023-04-01T03:03:12;98656.59;;;8.90;80.61
42761;BME280;31672;47.638;19.026;2023-04-01T03:08:16;98653.34;;;8.94;81.04
42761;BME280;31672;47.638;19.026;2023-04-01T03:13:19;98657.09;;;9.06;79.82
42761;BME280;31672;47.638;19.026;2023-04-01T03:18:22;98645.09;;;9.17;78.67
42761;BME280;31672;47.638;19.026;2023-04-01T03:23:25;98645.78;;;9.26;77.92
42761;BME280;31672;47.638;19.026;2023-04-01T03:28:28;98648.63;;;9.24;77.78
42761;BME280;31672;47.638;19.026;2023-04-01T03:33:31;98651.25;;;9.18;77.94
42761;BME280;31672;47.638;19.026;2023-04-01T03:38:35;98658.75;;;9.14;77.77
42761;BME280;31672;47.638;19.026;2023-04-01T03:43:38;98675.69;;;9.13;77.58
42761;BME280;31672;47.638;19.026;2023-04-01T03:48:41;98688.28;;;9.11;77.53
42761;BME280;31672;47.638;19.026;2023-04-01T03:53:44;98693.22;;;9.14;77.46
42761;BME280;31672;47.638;19.026;2023-04-01T03:58:47;98679.47;;;9.04;77.69
42761;BME280;31672;47.638;19.026;2023-04-01T04:03:51;98684.34;;;8.94;78.35
42761;BME280;31672;47.638;19.026;2023-04-01T04:08:55;98702.41;;;8.83;78.61
42761;BME280;31672;47.638;19.026;2023-04-01T04:13:59;98696.19;;;8.70;79.01
42761;BME280;31672;47.638;19.026;2023-04-01T04:19:03;98701.34;;;8.56;79.98
42761;BME280;31672;47.638;19.026;2023-04-01T04:24:06;98701.06;;;8.45;80.75
42761;BME280;31672;47.638;19.026;2023-04-01T04:29:10;98695.25;;;8.35;81.35
42761;BME280;31672;47.638;19.026;2023-04-01T04:34:14;98698.78;;;8.20;82.10
42761;BME280;31672;47.638;19.026;2023-04-01T04:39:17;98691.78;;;8.13;82.49
42761;BME280;31672;47.638;19.026;2023-04-01T04:44:20;98677.88;;;8.04;82.89
42761;BME280;31672;47.638;19.026;2023-04-01T04:49:23;98688.44;;;8.04;83.54
42761;BME280;31672;47.638;19.026;2023-04-01T04:54:26;98686.78;;;8.03;83.57
42761;BME280;31672;47.638;19.026;2023-04-01T04:59:30;98685.81;;;8.04;83.61
42761;BME280;31672;47.638;19.026;2023-04-01T05:04:37;98676.84;;;8.05;83.50
42761;BME280;31672;47.638;19.026;2023-04-01T05:09:40;98686.69;;;8.11;83.52
42761;BME280;31672;47.638;19.026;2023-04-01T05:14:44;98694.28;;;8.21;83.60
42761;BME280;31672;47.638;19.026;2023-04-01T05:19:47;98690.59;;;8.37;83.23
42761;BME280;31672;47.638;19.026;2023-04-01T05:24:50;98695.25;;;8.56;82.14
42761;BME280;31672;47.638;19.026;2023-04-01T05:29:53;98683.00;;;8.76;80.62
42761;BME280;31672;47.638;19.026;2023-04-01T05:34:55;98687.16;;;8.92;79.67
42761;BME280;31672;47.638;19.026;2023-04-01T05:39:58;98696.03;;;9.06;78.79
42761;BME280;31672;47.638;19.026;2023-04-01T05:45:02;98700.97;;;9.16;78.67
42761;BME280;31672;47.638;19.026;2023-04-01T05:50:05;98701.81;;;9.23;78.22
42761;BME280;31672;47.638;19.026;2023-04-01T05:55:09;98695.75;;;9.35;77.82
42761;BME280;31672;47.638;19.026;2023-04-01T06:00:13;98701.97;;;9.56;77.55
42761;BME280;31672;47.638;19.026;2023-04-01T06:05:26;98695.56;;;9.78;77.04
42761;BME280;31672;47.638;19.026;2023-04-01T06:11:13;98687.22;;;10.01;75.67
42761;BME280;31672;47.638;19.026;2023-04-01T06:48:46;98698.94;;;11.06;69.19
42761;BME280;31672;47.638;19.026;2023-04-01T06:59:14;98700.09;;;11.30;66.43
42761;BME280;31672;47.638;19.026;2023-04-01T07:04:42;98694.34;;;11.46;67.05
42761;BME280;31672;47.638;19.026;2023-04-01T07:09:52;98692.19;;;11.68;66.52
42761;BME280;31672;47.638;19.026;2023-04-01T07:14:58;98689.03;;;11.91;65.65
42761;BME280;31672;47.638;19.026;2023-04-01T07:20:16;98687.25;;;12.17;63.95
42761;BME280;31672;47.638;19.026;2023-04-01T07:25:27;98682.16;;;12.40;63.22
42761;BME280;31672;47.638;19.026;2023-04-01T07:31:01;98691.13;;;12.71;62.06
42761;BME280;31672;47.638;19.026;2023-04-01T07:36:16;98682.81;;;12.85;60.50
42761;BME280;31672;47.638;19.026;2023-04-01T07:46:56;98694.31;;;13.04;59.24
42761;BME280;31672;47.638;19.026;2023-04-01T07:52:12;98697.81;;;13.05;60.51
42761;BME280;31672;47.638;19.026;2023-04-01T07:57:57;98697.66;;;13.18;60.20
42761;BME280;31672;47.638;19.026;2023-04-01T08:03:43;98695.69;;;13.13;59.03
42761;BME280;31672;47.638;19.026;2023-04-01T08:09:27;98704.50;;;13.14;58.91
42761;BME280;31672;47.638;19.026;2023-04-01T08:15:26;98710.50;;;13.09;59.14
42761;BME280;31672;47.638;19.026;2023-04-01T08:20:58;98697.09;;;13.16;59.18
42761;BME280;31672;47.638;19.026;2023-04-01T08:26:34;98707.41;;;13.49;59.02
42761;BME280;31672;47.638;19.026;2023-04-01T08:37:12;98705.34;;;13.70;57.21
42761;BME280;31672;47.638;19.026;2023-04-01T08:59:49;98722.94;;;13.16;60.12
42761;BME280;31672;47.638;19.026;2023-04-01T09:32:45;98711.84;;;12.44;62.42
42761;BME280;31672;47.638;19.026;2023-04-01T10:06:41;98710.78;;;12.20;64.15
42761;BME280;31672;47.638;19.026;2023-04-01T10:12:31;98710.38;;;12.16;63.77
42761;BME280;31672;47.638;19.026;2023-04-01T10:47:02;98724.19;;;12.38;65.37
42761;BME280;31672;47.638;19.026;2023-04-01T10:57:55;98711.81;;;13.19;64.57
42761;BME280;31672;47.638;19.026;2023-04-01T11:54:10;98722.88;;;12.16;64.52
42761;BME280;31672;47.638;19.026;2023-04-01T12:21:38;98726.84;;;13.56;58.03
42761;BME280;31672;47.638;19.026;2023-04-01T12:55:03;98707.78;;;15.32;49.96
42761;BME280;31672;47.638;19.026;2023-04-01T13:12:59;98672.38;;;16.39;46.67
42761;BME280;31672;47.638;19.026;2023-04-01T13:34:32;98678.56;;;16.56;45.26
42761;BME280;31672;47.638;19.026;2023-04-01T13:45:17;98685.41;;;16.01;46.40
42761;BME280;31672;47.638;19.026;2023-04-01T13:50:56;98686.56;;;15.94;46.76
42761;BME280;31672;47.638;19.026;2023-04-01T14:01:11;98698.13;;;15.42;47.53
42761;BME280;31672;47.638;19.026;2023-04-01T14:11:54;98697.19;;;15.37;50.18
42761;BME280;31672;47.638;19.026;2023-04-01T14:28:35;98690.41;;;15.46;51.81
42761;BME280;31672;47.638;19.026;2023-04-01T14:39:38;98674.59;;;16.13;48.94
42761;BME280;31672;47.638;19.026;2023-04-01T15:12:32;98688.66;;;16.99;45.51
42761;BME280;31672;47.638;19.026;2023-04-01T15:23:22;98689.44;;;16.66;44.92
42761;BME280;31672;47.638;19.026;2023-04-01T15:39:49;98682.50;;;16.37;45.77
42761;BME280;31672;47.638;19.026;2023-04-01T16:01:31;98707.25;;;17.06;42.26
42761;BME280;31672;47.638;19.026;2023-04-01T16:12:09;98723.72;;;16.02;46.15
42761;BME280;31672;47.638;19.026;2023-04-01T16:29:02;98749.69;;;15.03;49.80
42761;BME280;31672;47.638;19.026;2023-04-01T16:34:30;98752.69;;;14.94;49.83
42761;BME280;31672;47.638;19.026;2023-04-01T16:39:47;98754.88;;;14.74;49.55
42761;BME280;31672;47.638;19.026;2023-04-01T17:07:05;98785.94;;;13.60;51.67
42761;BME280;31672;47.638;19.026;2023-04-01T17:12:37;98792.94;;;13.36;52.10
42761;BME280;31672;47.638;19.026;2023-04-01T17:18:14;98796.41;;;13.11;53.11
42761;BME280;31672;47.638;19.026;2023-04-01T17:40:29;98821.19;;;12.17;55.53
42761;BME280;31672;47.638;19.026;2023-04-01T17:45:58;98814.97;;;11.92;56.31
42761;BME280;31672;47.638;19.026;2023-04-01T18:39:34;98882.47;;;10.65;62.48
42761;BME280;31672;47.638;19.026;2023-04-01T18:51:10;98884.34;;;10.71;62.14
42761;BME280;31672;47.638;19.026;2023-04-01T18:56:28;98887.81;;;10.78;61.63
42761;BME280;31672;47.638;19.026;2023-04-01T19:01:43;98889.06;;;10.76;61.78
42761;BME280;31672;47.638;19.026;2023-04-01T19:06:56;98891.47;;;10.64;61.54
42761;BME280;31672;47.638;19.026;2023-04-01T19:13:03;98896.09;;;10.49;62.74
42761;BME280;31672;47.638;19.026;2023-04-01T19:46:53;98920.72;;;9.95;64.50
42761;BME280;31672;47.638;19.026;2023-04-01T20:07:19;98928.19;;;9.28;67.04
42761;BME280;31672;47.638;19.026;2023-04-01T20:18:31;98921.28;;;9.06;67.83
42761;BME280;31672;47.638;19.026;2023-04-01T20:23:56;98920.13;;;8.94;68.32
42761;BME280;31672;47.638;19.026;2023-04-01T20:34:42;98919.69;;;8.75;68.97
42761;BME280;31672;47.638;19.026;2023-04-01T20:40:15;98922.22;;;8.62;69.34
42761;BME280;31672;47.638;19.026;2023-04-01T20:46:01;98931.91;;;8.55;69.84
42761;BME280;31672;47.638;19.026;2023-04-01T20:51:21;98942.41;;;8.48;70.25
42761;BME280;31672;47.638;19.026;2023-04-01T21:36:27;98959.22;;;8.92;74.30
42761;BME280;31672;47.638;19.026;2023-04-01T22:04:32;98960.63;;;9.52;69.87
42761;BME280;31672;47.638;19.026;2023-04-01T22:09:56;98966.31;;;9.49;69.51
42761;BME280;31672;47.638;19.026;2023-04-01T22:26:53;98986.25;;;9.23;70.46
42761;BME280;31672;47.638;19.026;2023-04-01T22:38:11;99000.72;;;9.21;70.72
42761;BME280;31672;47.638;19.026;2023-04-01T22:48:49;99015.91;;;9.12;71.07
42761;BME280;31672;47.638;19.026;2023-04-01T22:59:54;99029.00;;;8.99;71.37
42761;BME280;31672;47.638;19.026;2023-04-01T23:05:05;99030.47;;;8.87;71.79
42761;BME280;31672;47.638;19.026;2023-04-01T23:15:46;99038.25;;;8.88;72.86
42761;BME280;31672;47.638;19.026;2023-04-01T23:32:23;99045.47;;;8.79;74.17
42761;BME280;31672;47.638;19.026;2023-04-01T23:37:29;99050.16;;;8.77;74.42
42761;BME280;31672;47.638;19.026;2023-04-01T23:42:39;99051.78;;;8.78;74.29
42761;BME280;31672;47.638;19.026;2023-04-01T23:47:44;99053.06;;;8.82;74.20
42761;BME280;31672;47.638;19.026;2023-04-01T23:53:04;99050.41;;;8.82;73.89
42761;BME280;31672;47.638;19.026;2023-04-01T23:58:26;99061.38;;;8.79;74.01
